Weather at Gamarmalamo Airport

Public forecast

Using degrees Celsius for public forecast. Weather courtesy of forecast.io.

Closest aviation weather report (METAR) to Gamarmalamo Airport

Closest report is Sam Ratulangi Airport, 172.5 nm (319.5 km) W.

2024/05/28 16:30 (retrieved 27 minutes ago)

WAMM 281630Z VRB02KT 9999 FEW020 24/23 Q1010 NOSIG

Closest aviation forecast (TAF) to Gamarmalamo Airport

Closest forecast is Sam Ratulangi Airport, 172.5 nm (319.5 km) W.

2024/05/28 12:25 (retrieved 5 hours ago)

TAF WAMM 281100Z 2812/2918 VRB02KT 9999 FEW020 BECMG 2900/2902 15010KT